createdAt,value
2022-12-05T00:01:23.026Z,93.28
2022-12-05T00:03:49.142Z,93.42
2022-12-05T00:06:15.272Z,93.43
2022-12-05T00:08:41.372Z,93.71
2022-12-05T00:11:07.454Z,93.29
2022-12-05T00:13:33.554Z,93.52
2022-12-05T00:15:59.653Z,93.50
2022-12-05T00:18:25.748Z,93.37
2022-12-05T00:20:51.851Z,93.40
2022-12-05T00:23:17.968Z,93.47
2022-12-05T00:25:44.062Z,93.46
2022-12-05T00:28:10.144Z,93.62
2022-12-05T00:30:36.245Z,93.85
2022-12-05T00:33:02.339Z,93.51
2022-12-05T00:35:28.426Z,93.78
2022-12-05T00:37:54.586Z,93.48
2022-12-05T00:40:20.697Z,93.85
2022-12-05T00:42:52.002Z,93.57
2022-12-05T00:45:18.484Z,93.61
2022-12-05T00:47:44.590Z,93.83
2022-12-05T00:50:10.686Z,93.56
2022-12-05T00:52:36.802Z,93.71
2022-12-05T00:55:02.901Z,93.80
2022-12-05T00:57:28.991Z,93.86
2022-12-05T00:59:55.426Z,93.91
2022-12-05T01:02:21.692Z,93.88
2022-12-05T01:04:47.780Z,93.81
2022-12-05T01:07:13.881Z,93.44
2022-12-05T01:09:39.979Z,93.52
2022-12-05T01:12:06.062Z,93.56
2022-12-05T01:14:32.188Z,93.95
2022-12-05T01:16:58.303Z,93.63
2022-12-05T01:19:24.506Z,93.77
2022-12-05T01:21:50.622Z,93.92
2022-12-05T01:24:16.723Z,94.02
2022-12-05T01:26:42.826Z,93.72
2022-12-05T01:29:09.027Z,93.84
2022-12-05T01:31:35.217Z,93.62
2022-12-05T01:34:01.343Z,93.58
2022-12-05T01:36:27.448Z,93.74
2022-12-05T01:38:53.540Z,93.93
2022-12-05T01:41:19.631Z,93.75
2022-12-05T01:43:46.032Z,93.98
2022-12-05T01:46:12.177Z,93.97
2022-12-05T01:48:38.288Z,93.70
2022-12-05T01:51:04.400Z,93.72
2022-12-05T01:53:30.497Z,93.96
2022-12-05T01:55:56.585Z,93.73
2022-12-05T01:58:22.691Z,93.94
2022-12-05T02:00:48.846Z,93.98
2022-12-05T02:03:14.993Z,94.05
2022-12-05T02:05:41.108Z,93.76
2022-12-05T02:08:07.257Z,94.04
2022-12-05T02:10:33.338Z,93.98
2022-12-05T02:12:59.464Z,93.94
2022-12-05T02:15:25.565Z,94.02
2022-12-05T02:17:51.667Z,93.84
2022-12-05T02:20:17.791Z,93.98
2022-12-05T02:22:43.898Z,93.99
2022-12-05T02:25:09.995Z,93.80
2022-12-05T02:27:36.099Z,93.99
2022-12-05T02:30:02.200Z,94.04
2022-12-05T02:32:28.299Z,94.05
2022-12-05T02:34:54.889Z,93.90
2022-12-05T02:37:20.982Z,94.02
2022-12-05T02:39:47.091Z,93.86
2022-12-05T02:42:13.239Z,93.92
2022-12-05T02:44:39.343Z,94.07
2022-12-05T02:47:05.431Z,94.03
2022-12-05T02:49:31.547Z,94.18
2022-12-05T02:51:57.641Z,94.01
2022-12-05T02:54:23.740Z,94.19
2022-12-05T02:56:49.863Z,93.96
2022-12-05T02:59:21.465Z,94.16
2022-12-05T03:01:49.433Z,94.14
2022-12-05T03:04:15.622Z,93.96
2022-12-05T03:06:41.752Z,94.05
2022-12-05T03:09:07.849Z,94.18
2022-12-05T03:11:33.954Z,94.13
2022-12-05T03:14:00.044Z,94.32
2022-12-05T03:16:26.195Z,94.17
2022-12-05T03:18:52.356Z,94.26
2022-12-05T03:21:18.477Z,94.19
2022-12-05T03:23:44.568Z,94.28
2022-12-05T03:26:10.697Z,94.00
2022-12-05T03:28:36.782Z,94.26
2022-12-05T03:31:02.921Z,94.07
2022-12-05T03:33:29.063Z,93.88
2022-12-05T03:35:55.154Z,94.08
2022-12-05T03:38:21.252Z,94.28
2022-12-05T03:40:47.374Z,94.09
2022-12-05T03:43:13.463Z,94.28
2022-12-05T03:45:39.592Z,94.21
2022-12-05T03:48:05.743Z,94.16
2022-12-05T03:50:31.828Z,94.34
2022-12-05T03:53:19.234Z,94.25
2022-12-05T03:55:44.048Z,94.39
2022-12-05T03:58:10.168Z,94.34
2022-12-05T04:00:36.273Z,94.34
2022-12-05T04:03:02.455Z,94.35
2022-12-05T04:05:28.618Z,94.25
2022-12-05T04:07:54.750Z,94.30
2022-12-05T04:10:20.913Z,94.06
2022-12-05T04:12:47.008Z,94.26
2022-12-05T04:15:13.124Z,94.37
2022-12-05T04:17:39.220Z,94.24
2022-12-05T04:20:05.316Z,94.17
2022-12-05T04:22:31.407Z,94.14
2022-12-05T04:24:57.514Z,93.96
2022-12-05T04:27:23.608Z,94.29
2022-12-05T04:29:49.712Z,94.02
2022-12-05T04:32:15.831Z,94.00
2022-12-05T04:34:41.932Z,94.02
2022-12-05T04:37:08.024Z,94.00
2022-12-05T04:39:34.639Z,94.18
2022-12-05T04:42:00.747Z,94.20
2022-12-05T04:44:26.841Z,94.29
2022-12-05T04:46:52.973Z,94.12
2022-12-05T04:49:19.137Z,94.04
2022-12-05T04:51:45.245Z,94.08
2022-12-05T04:54:11.360Z,93.92
2022-12-05T04:56:37.478Z,94.29
2022-12-05T04:59:03.560Z,94.14
2022-12-05T05:01:29.748Z,94.02
2022-12-05T05:03:55.908Z,94.06
2022-12-05T05:06:22.008Z,94.10
2022-12-05T05:08:48.140Z,94.02
2022-12-05T05:11:14.244Z,94.17
2022-12-05T05:13:40.349Z,93.99
2022-12-05T05:16:06.501Z,93.99
2022-12-05T05:18:32.659Z,94.15
2022-12-05T05:20:58.753Z,94.25
2022-12-05T05:23:24.875Z,94.15
2022-12-05T05:25:50.964Z,94.12
2022-12-05T05:28:17.051Z,94.42
2022-12-05T05:30:43.162Z,94.43
2022-12-05T05:33:09.284Z,94.22
2022-12-05T05:35:35.375Z,94.11
2022-12-05T05:38:01.474Z,94.09
2022-12-05T05:40:27.562Z,94.13
2022-12-05T05:42:53.648Z,94.18
2022-12-05T05:45:20.042Z,94.15
2022-12-05T05:47:46.140Z,94.15
2022-12-05T05:50:16.299Z,94.42
2022-12-05T05:52:46.252Z,94.39
2022-12-05T05:55:12.353Z,94.23
2022-12-05T05:57:38.442Z,94.44
2022-12-05T06:00:04.583Z,94.46
2022-12-05T06:02:30.725Z,94.31
2022-12-05T06:04:56.876Z,94.31
2022-12-05T06:07:22.988Z,94.42
2022-12-05T06:09:49.066Z,94.27
2022-12-05T06:12:15.172Z,94.37
2022-12-05T06:14:41.299Z,94.15
2022-12-05T06:17:07.378Z,94.28
2022-12-05T06:19:33.468Z,94.21
2022-12-05T06:21:59.575Z,94.24
2022-12-05T06:24:25.664Z,94.42
2022-12-05T06:26:51.754Z,94.44
2022-12-05T06:29:20.589Z,94.27
2022-12-05T06:31:50.197Z,94.43
2022-12-05T06:34:16.376Z,94.19
2022-12-05T06:36:42.475Z,94.27
2022-12-05T06:39:08.564Z,94.28
2022-12-05T06:41:34.659Z,94.44
2022-12-05T06:44:02.453Z,94.55
2022-12-05T06:46:29.005Z,94.30
2022-12-05T06:48:55.152Z,94.48
2022-12-05T06:51:21.262Z,94.42
2022-12-05T06:53:47.344Z,94.43
2022-12-05T06:56:13.442Z,94.49
2022-12-05T06:58:39.553Z,94.62
2022-12-05T07:01:05.699Z,94.69
2022-12-05T07:03:31.836Z,94.27
2022-12-05T07:05:57.966Z,94.56
2022-12-05T07:08:24.084Z,94.45
2022-12-05T07:10:50.175Z,94.38
2022-12-05T07:13:16.292Z,94.80
2022-12-05T07:15:42.388Z,94.38
2022-12-05T07:18:08.482Z,94.37
2022-12-05T07:20:56.096Z,94.38
2022-12-05T07:23:20.649Z,94.80
2022-12-05T07:25:46.774Z,94.63
2022-12-05T07:28:12.863Z,94.31
2022-12-05T07:30:38.947Z,94.55
2022-12-05T07:33:05.060Z,94.57
2022-12-05T07:35:31.154Z,94.53
2022-12-05T07:37:57.288Z,94.44
2022-12-05T07:40:23.395Z,94.41
2022-12-05T07:42:49.492Z,94.37
2022-12-05T07:45:15.571Z,94.40
2022-12-05T07:47:41.724Z,94.59
2022-12-05T07:50:07.830Z,94.41
2022-12-05T07:52:33.923Z,94.48
2022-12-05T07:55:00.090Z,94.62
2022-12-05T07:57:26.205Z,94.83
2022-12-05T07:59:52.300Z,94.72
2022-12-05T08:02:18.661Z,94.49
2022-12-05T08:04:44.789Z,94.68
2022-12-05T08:07:10.889Z,94.90
2022-12-05T08:09:37.020Z,94.84
2022-12-05T08:12:03.112Z,94.97
2022-12-05T08:14:29.220Z,95.01
2022-12-05T08:16:55.401Z,94.92
2022-12-05T08:19:21.535Z,94.88
2022-12-05T08:21:47.626Z,94.93
2022-12-05T08:24:13.744Z,94.89
2022-12-05T08:26:39.840Z,94.95
2022-12-05T08:29:05.936Z,94.72
2022-12-05T08:31:32.064Z,95.02
2022-12-05T08:33:59.308Z,94.72
2022-12-05T08:36:25.656Z,94.71
2022-12-05T08:38:51.764Z,94.71
2022-12-05T08:41:17.859Z,94.92
2022-12-05T08:43:43.961Z,94.93
2022-12-05T08:46:10.159Z,94.84
2022-12-05T08:48:36.326Z,94.85
2022-12-05T08:51:02.432Z,94.86
2022-12-05T08:53:28.551Z,94.95
2022-12-05T08:55:54.660Z,94.72
2022-12-05T08:58:20.742Z,94.89
2022-12-05T09:00:46.870Z,94.73
2022-12-05T09:03:12.997Z,94.98
2022-12-05T09:05:39.092Z,94.94
2022-12-05T09:08:05.322Z,94.95
2022-12-05T09:10:31.500Z,94.93
2022-12-05T09:12:58.088Z,94.78
2022-12-05T09:15:24.282Z,94.94
2022-12-05T09:17:50.383Z,94.79
2022-12-05T09:20:16.487Z,94.68
2022-12-05T09:22:42.602Z,94.75
2022-12-05T09:25:08.683Z,95.05
2022-12-05T09:27:34.785Z,94.66
2022-12-05T09:30:00.969Z,94.69
2022-12-05T09:32:27.088Z,94.81
2022-12-05T09:34:53.193Z,94.68
2022-12-05T09:37:38.162Z,94.75
2022-12-05T09:40:04.585Z,94.85
2022-12-05T09:42:30.722Z,94.73
2022-12-05T09:44:57.050Z,94.75
2022-12-05T09:47:23.458Z,94.68
2022-12-05T09:49:49.585Z,94.84
2022-12-05T09:52:15.674Z,94.60
2022-12-05T09:54:41.794Z,94.55
2022-12-05T09:57:07.906Z,94.57
2022-12-05T09:59:34.001Z,94.86
2022-12-05T10:02:00.158Z,94.51
2022-12-05T10:04:26.894Z,94.56
2022-12-05T10:06:53.032Z,94.47
2022-12-05T10:09:19.115Z,94.47
2022-12-05T10:11:45.814Z,94.73
2022-12-05T10:14:11.920Z,94.56
2022-12-05T10:16:38.129Z,94.66
2022-12-05T10:19:04.296Z,94.60
2022-12-05T10:21:30.390Z,94.60
2022-12-05T10:23:58.251Z,94.58
2022-12-05T10:26:24.871Z,94.39
2022-12-05T10:28:50.960Z,94.21
2022-12-05T10:31:17.120Z,94.34
2022-12-05T10:33:43.295Z,94.19
2022-12-05T10:36:09.397Z,94.04
2022-12-05T10:38:35.496Z,94.13
2022-12-05T10:41:01.628Z,94.24
2022-12-05T10:43:27.774Z,94.37
2022-12-05T10:45:53.890Z,94.00
2022-12-05T10:48:20.007Z,94.07
2022-12-05T10:50:46.092Z,93.94
2022-12-05T10:53:12.188Z,94.01
2022-12-05T10:55:38.293Z,93.97
2022-12-05T10:58:04.393Z,94.16
2022-12-05T11:00:30.486Z,94.11
2022-12-05T11:02:57.288Z,94.21
2022-12-05T11:05:23.418Z,94.10
2022-12-05T11:07:49.662Z,94.19
2022-12-05T11:10:15.933Z,94.00
2022-12-05T11:12:42.006Z,94.04
2022-12-05T11:15:08.097Z,93.87
2022-12-05T11:17:34.431Z,94.00
2022-12-05T11:20:00.537Z,93.78
2022-12-05T11:22:26.628Z,94.13
2022-12-05T11:24:52.749Z,93.90
2022-12-05T11:27:18.833Z,94.19
2022-12-05T11:29:44.943Z,93.86
2022-12-05T11:32:11.065Z,94.05
2022-12-05T11:34:37.156Z,93.88
2022-12-05T11:37:03.236Z,93.79
2022-12-05T11:39:29.351Z,94.07
2022-12-05T11:41:55.443Z,94.14
2022-12-05T11:44:21.531Z,93.85
2022-12-05T11:46:47.747Z,94.09
2022-12-05T11:49:13.890Z,93.84
2022-12-05T11:51:39.990Z,93.85
2022-12-05T11:54:06.097Z,93.67
2022-12-05T11:56:32.202Z,93.82
2022-12-05T11:58:58.376Z,93.95
2022-12-05T12:01:24.495Z,93.83
2022-12-05T12:03:50.639Z,94.12
2022-12-05T12:06:16.808Z,94.17
2022-12-05T12:08:43.236Z,94.09
2022-12-05T12:11:09.338Z,94.10
2022-12-05T12:13:35.431Z,94.12
2022-12-05T12:16:06.653Z,93.86
2022-12-05T12:18:34.458Z,94.00
2022-12-05T12:21:00.558Z,93.99
2022-12-05T12:23:26.657Z,94.15
2022-12-05T12:25:52.744Z,94.25
2022-12-05T12:28:18.836Z,93.91
2022-12-05T12:30:44.945Z,94.24
2022-12-05T12:33:11.060Z,94.25
2022-12-05T12:35:37.158Z,94.03
2022-12-05T12:38:03.255Z,94.36
2022-12-05T12:40:29.350Z,94.48
2022-12-05T12:42:55.445Z,94.28
2022-12-05T12:45:21.574Z,94.19
2022-12-05T12:47:47.668Z,94.10
2022-12-05T12:50:13.769Z,94.55
2022-12-05T12:52:39.878Z,94.44
2022-12-05T12:55:06.015Z,94.48
2022-12-05T12:57:32.151Z,94.45
2022-12-05T12:59:58.381Z,94.19
2022-12-05T13:02:24.718Z,94.46
2022-12-05T13:04:50.870Z,94.52
2022-12-05T13:07:16.982Z,94.32
2022-12-05T13:09:46.164Z,94.41
2022-12-05T13:12:16.335Z,94.54
2022-12-05T13:14:42.959Z,94.30
2022-12-05T13:17:09.096Z,94.32
2022-12-05T13:19:35.237Z,94.33
2022-12-05T13:22:01.347Z,94.53
2022-12-05T13:24:27.435Z,94.35
2022-12-05T13:26:53.515Z,94.35
2022-12-05T13:29:19.615Z,94.29
2022-12-05T13:31:45.830Z,94.59
2022-12-05T13:34:11.993Z,94.52
2022-12-05T13:36:38.115Z,94.47
2022-12-05T13:39:04.214Z,94.45
2022-12-05T13:41:30.293Z,94.74
2022-12-05T13:44:05.988Z,94.42
2022-12-05T13:46:32.667Z,94.65
2022-12-05T13:48:58.814Z,94.46
2022-12-05T13:51:24.896Z,94.56
2022-12-05T13:53:50.978Z,94.58
2022-12-05T13:56:17.113Z,94.70
2022-12-05T13:58:43.200Z,94.45
2022-12-05T14:01:09.350Z,94.63
2022-12-05T14:03:35.480Z,94.54
2022-12-05T14:06:01.579Z,94.58
2022-12-05T14:08:27.700Z,94.42
2022-12-05T14:10:53.841Z,94.66
2022-12-05T14:13:19.996Z,94.38
2022-12-05T14:15:46.094Z,94.67
2022-12-05T14:18:12.298Z,94.33
2022-12-05T14:20:38.382Z,94.51
2022-12-05T14:23:04.465Z,94.56
2022-12-05T14:25:30.575Z,94.86
2022-12-05T14:27:56.701Z,94.46
2022-12-05T14:30:22.821Z,94.59
2022-12-05T14:32:48.950Z,94.73
2022-12-05T14:35:15.048Z,94.88
2022-12-05T14:37:44.425Z,94.74
2022-12-05T14:40:14.602Z,94.67
2022-12-05T14:42:40.780Z,94.90
2022-12-05T14:45:06.873Z,94.78
2022-12-05T14:47:32.979Z,94.94
2022-12-05T14:49:59.088Z,94.84
2022-12-05T14:52:25.227Z,94.91
2022-12-05T14:54:51.375Z,94.93
2022-12-05T14:57:17.455Z,95.07
2022-12-05T14:59:43.549Z,94.93
2022-12-05T15:02:09.697Z,95.04
2022-12-05T15:04:35.827Z,95.06
2022-12-05T15:07:01.944Z,94.90
2022-12-05T15:09:36.991Z,94.85
2022-12-05T15:12:09.373Z,95.00
2022-12-05T15:14:35.934Z,95.02
2022-12-05T15:17:02.035Z,94.86
2022-12-05T15:19:28.411Z,94.80
2022-12-05T15:21:55.107Z,95.17
2022-12-05T15:24:21.197Z,95.17
2022-12-05T15:26:48.494Z,95.14
2022-12-05T15:29:15.168Z,95.23
2022-12-05T15:31:41.264Z,94.98
2022-12-05T15:34:07.355Z,95.11
2022-12-05T15:36:33.471Z,95.12
2022-12-05T15:38:59.558Z,95.34
2022-12-05T15:41:25.657Z,95.01
2022-12-05T15:43:51.772Z,95.08
2022-12-05T15:46:17.904Z,95.13
2022-12-05T15:48:44.001Z,95.19
2022-12-05T15:51:10.126Z,95.31
2022-12-05T15:53:36.224Z,95.18
2022-12-05T15:56:02.320Z,95.20
2022-12-05T15:58:28.421Z,95.06
2022-12-05T16:00:54.503Z,95.17
2022-12-05T16:03:20.587Z,95.25
2022-12-05T16:05:46.702Z,95.17
2022-12-05T16:08:12.844Z,95.52
2022-12-05T16:10:38.976Z,95.52
2022-12-05T16:13:05.094Z,95.68
2022-12-05T16:15:31.182Z,95.21
2022-12-05T16:17:57.276Z,95.66
2022-12-05T16:20:23.388Z,95.42
2022-12-05T16:22:49.472Z,95.51
2022-12-05T16:25:15.554Z,95.32
2022-12-05T16:27:41.945Z,95.62
2022-12-05T16:30:08.031Z,95.44
2022-12-05T16:32:34.125Z,95.45
2022-12-05T16:35:00.238Z,95.47
2022-12-05T16:37:26.327Z,95.69
2022-12-05T16:39:52.416Z,95.53
2022-12-05T16:42:18.530Z,95.85
2022-12-05T16:44:44.620Z,95.61
2022-12-05T16:47:10.704Z,95.81
2022-12-05T16:49:42.719Z,95.64
2022-12-05T16:52:11.848Z,95.62
2022-12-05T16:54:37.969Z,95.59
2022-12-05T16:57:04.060Z,95.77
2022-12-05T16:59:30.138Z,96.04
2022-12-05T17:01:56.301Z,96.03
2022-12-05T17:04:22.524Z,95.71
2022-12-05T17:06:48.624Z,95.67
2022-12-05T17:09:14.750Z,95.67
2022-12-05T17:11:40.853Z,95.71
2022-12-05T17:14:06.938Z,95.85
2022-12-05T17:16:33.147Z,95.80
2022-12-05T17:18:59.293Z,95.79
2022-12-05T17:21:25.390Z,96.04
2022-12-05T17:23:51.875Z,96.15
2022-12-05T17:26:17.958Z,95.75
2022-12-05T17:28:44.049Z,95.79
2022-12-05T17:31:10.197Z,95.95
2022-12-05T17:33:36.317Z,95.92
2022-12-05T17:36:02.417Z,96.12
2022-12-05T17:38:28.529Z,96.19
2022-12-05T17:40:54.616Z,95.95
2022-12-05T17:43:25.116Z,95.98
2022-12-05T17:45:51.671Z,96.33
2022-12-05T17:48:17.772Z,96.15
2022-12-05T17:50:44.083Z,95.97
2022-12-05T17:53:10.214Z,96.01
2022-12-05T17:55:36.312Z,95.99
2022-12-05T17:58:02.405Z,96.34
2022-12-05T18:00:28.526Z,96.02
2022-12-05T18:02:54.655Z,96.04
2022-12-05T18:05:20.780Z,96.08
2022-12-05T18:07:46.939Z,96.33
2022-12-05T18:10:13.124Z,96.23
2022-12-05T18:12:39.243Z,96.08
2022-12-05T18:15:05.356Z,96.39
2022-12-05T18:17:31.495Z,96.37
2022-12-05T18:19:57.604Z,96.55
2022-12-05T18:22:23.703Z,96.31
2022-12-05T18:24:49.790Z,96.58
2022-12-05T18:27:15.886Z,96.28
2022-12-05T18:29:42.051Z,96.51
2022-12-05T18:32:08.162Z,96.42
2022-12-05T18:34:34.252Z,96.40
2022-12-05T18:37:00.363Z,96.21
2022-12-05T18:39:26.468Z,96.34
2022-12-05T18:41:52.566Z,96.35
2022-12-05T18:44:18.695Z,96.35
2022-12-05T18:46:44.801Z,96.35
2022-12-05T18:49:10.886Z,96.34
2022-12-05T18:51:36.983Z,96.38
2022-12-05T18:54:03.088Z,96.44
2022-12-05T18:56:29.507Z,96.60
2022-12-05T18:58:55.998Z,96.40
2022-12-05T19:01:22.158Z,96.48
2022-12-05T19:03:48.273Z,96.41
2022-12-05T19:06:14.393Z,96.36
2022-12-05T19:08:40.492Z,96.36
2022-12-05T19:11:06.592Z,96.56
2022-12-05T19:13:32.689Z,96.69
2022-12-05T19:15:58.776Z,96.70
2022-12-05T19:18:24.889Z,96.81
2022-12-05T19:20:50.995Z,96.67
2022-12-05T19:23:17.083Z,96.46
2022-12-05T19:25:43.189Z,96.71
2022-12-05T19:28:09.291Z,96.61
2022-12-05T19:30:35.382Z,96.60
2022-12-05T19:33:01.478Z,96.52
2022-12-05T19:35:27.627Z,96.53
2022-12-05T19:37:53.725Z,96.49
2022-12-05T19:40:19.813Z,96.73
2022-12-05T19:42:45.938Z,96.72
2022-12-05T19:45:16.461Z,96.47
2022-12-05T19:47:44.064Z,96.47
2022-12-05T19:50:10.191Z,96.83
2022-12-05T19:52:36.279Z,96.49
2022-12-05T19:55:02.403Z,96.54
2022-12-05T19:57:31.405Z,96.63
2022-12-05T19:59:57.968Z,96.55
2022-12-05T20:02:24.367Z,96.56
2022-12-05T20:04:50.503Z,96.56
2022-12-05T20:07:16.591Z,96.53
2022-12-05T20:09:42.707Z,96.80
2022-12-05T20:12:08.815Z,96.61
2022-12-05T20:14:34.900Z,96.54
2022-12-05T20:17:01.020Z,96.90
2022-12-05T20:19:27.153Z,96.54
2022-12-05T20:21:53.290Z,96.62
2022-12-05T20:24:19.375Z,96.66
2022-12-05T20:26:45.634Z,97.01
2022-12-05T20:29:11.716Z,96.75
2022-12-05T20:31:37.872Z,96.62
2022-12-05T20:34:03.990Z,96.73
2022-12-05T20:36:30.087Z,96.73
2022-12-05T20:38:57.759Z,96.71
2022-12-05T20:41:23.874Z,96.74
2022-12-05T20:43:49.975Z,96.96
2022-12-05T20:46:16.104Z,96.72
2022-12-05T20:48:42.231Z,96.86
2022-12-05T20:51:08.317Z,96.77
2022-12-05T20:53:34.400Z,96.82
2022-12-05T20:56:00.503Z,96.80
2022-12-05T20:58:26.601Z,96.83
2022-12-05T21:00:52.738Z,96.85
2022-12-05T21:03:18.916Z,97.03
2022-12-05T21:05:45.021Z,96.81
2022-12-05T21:08:11.166Z,96.94
2022-12-05T21:10:37.336Z,97.14
2022-12-05T21:13:03.426Z,96.75
2022-12-05T21:15:29.532Z,96.88
2022-12-05T21:17:55.644Z,97.12
2022-12-05T21:20:21.732Z,96.86
2022-12-05T21:22:47.842Z,97.15
2022-12-05T21:25:13.945Z,96.93
2022-12-05T21:27:40.027Z,96.89
2022-12-05T21:30:06.126Z,97.27
2022-12-05T21:32:32.223Z,97.13
2022-12-05T21:34:58.299Z,97.08
2022-12-05T21:37:24.378Z,96.98
2022-12-05T21:39:50.721Z,97.22
2022-12-05T21:42:16.800Z,96.83
2022-12-05T21:44:42.887Z,97.07
2022-12-05T21:47:09.008Z,96.83
2022-12-05T21:49:35.116Z,96.94
2022-12-05T21:52:01.220Z,97.13
2022-12-05T21:54:27.335Z,96.87
2022-12-05T21:56:53.460Z,96.90
2022-12-05T21:59:19.549Z,96.93
2022-12-05T22:01:45.723Z,96.96
2022-12-05T22:04:11.884Z,96.88
2022-12-05T22:06:37.963Z,97.21
2022-12-05T22:09:04.080Z,96.90
2022-12-05T22:11:30.204Z,97.11
2022-12-05T22:13:56.298Z,97.19
2022-12-05T22:16:25.390Z,97.01
2022-12-05T22:18:55.219Z,96.97
2022-12-05T22:21:21.312Z,96.97
2022-12-05T22:23:47.438Z,97.21
2022-12-05T22:26:13.518Z,97.14
2022-12-05T22:28:39.600Z,97.11
2022-12-05T22:31:05.801Z,97.27
2022-12-05T22:33:31.924Z,97.16
2022-12-05T22:35:58.003Z,97.30
2022-12-05T22:38:24.103Z,97.46
2022-12-05T22:40:50.196Z,97.06
2022-12-05T22:43:16.288Z,97.08
2022-12-05T22:45:42.443Z,97.04
2022-12-05T22:48:08.539Z,97.41
2022-12-05T22:50:34.624Z,97.33
2022-12-05T22:53:00.728Z,97.28
2022-12-05T22:55:26.819Z,97.08
2022-12-05T22:57:52.916Z,97.09
2022-12-05T23:00:19.028Z,97.20
2022-12-05T23:02:45.143Z,97.19
2022-12-05T23:05:11.243Z,97.47
2022-12-05T23:07:37.423Z,97.13
2022-12-05T23:10:03.523Z,97.02
2022-12-05T23:12:29.607Z,97.36
2022-12-05T23:14:55.722Z,97.05
2022-12-05T23:17:21.813Z,97.32
2022-12-05T23:19:47.890Z,97.19
2022-12-05T23:22:13.991Z,97.29
2022-12-05T23:24:40.082Z,97.40
2022-12-05T23:27:06.175Z,97.38
2022-12-05T23:29:32.351Z,97.33
2022-12-05T23:31:58.504Z,97.53
2022-12-05T23:34:24.644Z,97.20
2022-12-05T23:36:50.799Z,97.13
2022-12-05T23:39:16.882Z,97.35
2022-12-05T23:41:42.971Z,97.13
2022-12-05T23:44:09.096Z,97.27
2022-12-05T23:46:35.239Z,97.12
2022-12-05T23:49:01.373Z,97.29
2022-12-05T23:51:27.490Z,97.42
2022-12-05T23:53:53.568Z,97.13
2022-12-05T23:56:19.653Z,97.13
2022-12-05T23:58:45.768Z,97.26
